MSC Ludovica — HPAF — position and weather

sailwx.info

Track history (hours):
 
Tides and Currents Weather Stations Pressure Air Temp Water Temp Dewpoint Dewpoint Depression Visibility Wind Speed Wind Dir Waves Ship Positions

MSC Ludovica

Last reported at 2015-Feb-24 01:31 UTC. Time now 2015-Mar-06 02:47 UTC.
Position N 26°32' W 078°46'.
Warning: this ship's position is 10 days out of date.

Length 301 m; draft 10.6 m.

Type: Ship. MMSI: 351248000.

Date/timePositionNaut miles runAvg speedWind from/ knotsBaromVisibWave heightAir tempDewpointWater temp
2015-Feb-24 01:31N 26°32' W 078°46'324 7.0
2015-Feb-22 03:04N 31°44' W 080°24'714.2
2015-Feb-22 02:33N 31°49' W 080°30'9 9.4
2015-Feb-22 01:33N 31°55' W 080°39'10 9.8
2015-Feb-22 00:33N 32°01' W 080°48'1010.0
2015-Feb-21 23:33N 32°05' W 080°59'7 6.6
2015-Feb-21 22:33N 32°06' W 081°06'3 2.7
2015-Feb-21 21:31N 32°08' W 081°08'0 0.0
2015-Feb-21 20:31N 32°08' W 081°08'0 0.0
2015-Feb-21 19:31N 32°08' W 081°08'0 0.0
2015-Feb-21 18:31N 32°08' W 081°08'0 0.0
2015-Feb-21 17:31N 32°08' W 081°08'0 0.0
2015-Feb-21 16:28N 32°08' W 081°08'0 0.0
2015-Feb-21 15:31N 32°08' W 081°08'0 0.0
2015-Feb-21 14:31N 32°08' W 081°08'0 0.0
2015-Feb-21 13:31N 32°08' W 081°08'0 0.0
2015-Feb-21 12:31N 32°08' W 081°08'0 0.0
2015-Feb-21 11:31N 32°08' W 081°08'0 0.0
2015-Feb-21 10:31N 32°08' W 081°08'0 0.0
2015-Feb-21 09:31N 32°08' W 081°08'0 0.0
2015-Feb-21 08:31N 32°08' W 081°08'0 0.0
2015-Feb-21 07:31N 32°08' W 081°08'0 0.0
2015-Feb-21 06:31N 32°08' W 081°08'0 0.0
2015-Feb-21 05:28N 32°08' W 081°08'0 0.0
2015-Feb-21 04:31N 32°08' W 081°08'0 0.0
2015-Feb-21 03:31N 32°08' W 081°08'0 0.1
2015-Feb-21 02:33N 32°08' W 081°08'6 5.8
2015-Feb-21 01:33N 32°05' W 081°02'1111.0
2015-Feb-21 00:33N 32°02' W 080°50'1212.1
2015-Feb-20 23:34N 31°56' W 080°37'4 4.5
2015-Feb-20 22:34N 31°56' W 080°32'1 1.3
2015-Feb-20 21:31N 31°56' W 080°31'  
2015-Feb-14 02:17N 38°35' W 033°23'1419.1
2015-Feb-14 01:31N 38°44' W 033°08'  
Track history (hours):
 
Tides and Currents Weather Stations Pressure Air Temp Water Temp Dewpoint Dewpoint Depression Visibility Wind Speed Wind Dir Waves Ship Positions

MSC Ludovica

Last reported at 2015-Feb-24 01:31 UTC. Time now 2015-Mar-06 02:47 UTC.
Position N 26°32' W 078°46'.
Warning: this ship's position is 10 days out of date.

Length 301 m; draft 10.6 m.

Type: Ship. MMSI: 351248000.

Date/timePositionNaut miles runAvg speedWind from/ knotsBaromVisibWave heightAir tempDewpointWater temp
2015-Feb-24 01:31N 26°32' W 078°46'324 7.0
2015-Feb-22 03:04N 31°44' W 080°24'714.2
2015-Feb-22 02:33N 31°49' W 080°30'9 9.4
2015-Feb-22 01:33N 31°55' W 080°39'10 9.8
2015-Feb-22 00:33N 32°01' W 080°48'1010.0
2015-Feb-21 23:33N 32°05' W 080°59'7 6.6
2015-Feb-21 22:33N 32°06' W 081°06'3 2.7
2015-Feb-21 21:31N 32°08' W 081°08'0 0.0
2015-Feb-21 20:31N 32°08' W 081°08'0 0.0
2015-Feb-21 19:31N 32°08' W 081°08'0 0.0
2015-Feb-21 18:31N 32°08' W 081°08'0 0.0
2015-Feb-21 17:31N 32°08' W 081°08'0 0.0
2015-Feb-21 16:28N 32°08' W 081°08'0 0.0
2015-Feb-21 15:31N 32°08' W 081°08'0 0.0
2015-Feb-21 14:31N 32°08' W 081°08'0 0.0
2015-Feb-21 13:31N 32°08' W 081°08'0 0.0
2015-Feb-21 12:31N 32°08' W 081°08'0 0.0
2015-Feb-21 11:31N 32°08' W 081°08'0 0.0
2015-Feb-21 10:31N 32°08' W 081°08'0 0.0
2015-Feb-21 09:31N 32°08' W 081°08'0 0.0
2015-Feb-21 08:31N 32°08' W 081°08'0 0.0
2015-Feb-21 07:31N 32°08' W 081°08'0 0.0
2015-Feb-21 06:31N 32°08' W 081°08'0 0.0
2015-Feb-21 05:28N 32°08' W 081°08'0 0.0
2015-Feb-21 04:31N 32°08' W 081°08'0 0.0
2015-Feb-21 03:31N 32°08' W 081°08'0 0.1
2015-Feb-21 02:33N 32°08' W 081°08'6 5.8
2015-Feb-21 01:33N 32°05' W 081°02'1111.0
2015-Feb-21 00:33N 32°02' W 080°50'1212.1
2015-Feb-20 23:34N 31°56' W 080°37'4 4.5
2015-Feb-20 22:34N 31°56' W 080°32'1 1.3
2015-Feb-20 21:31N 31°56' W 080°31'  
2015-Feb-14 02:17N 38°35' W 033°23'1419.1
2015-Feb-14 01:31N 38°44' W 033°08'  

Dump ship's entire track history